sensor_id;sensor_type;location;lat;lon;timestamp;pressure;altitude;pressure_sealevel;temperature;humidity
52719;BME280;38616;42.140;24.760;2022-11-12T00:02:11;101024.50;;;13.14;58.46
52719;BME280;38616;42.140;24.760;2022-11-12T00:04:37;101026.91;;;13.11;58.86
52719;BME280;38616;42.140;24.760;2022-11-12T00:07:02;101026.19;;;13.21;59.69
52719;BME280;38616;42.140;24.760;2022-11-12T00:09:27;101018.00;;;13.26;59.21
52719;BME280;38616;42.140;24.760;2022-11-12T00:11:53;101012.16;;;13.07;60.35
52719;BME280;38616;42.140;24.760;2022-11-12T00:14:18;101018.41;;;13.02;60.98
52719;BME280;38616;42.140;24.760;2022-11-12T00:16:43;101018.88;;;12.94;61.99
52719;BME280;38616;42.140;24.760;2022-11-12T00:19:09;101011.03;;;13.03;61.06
52719;BME280;38616;42.140;24.760;2022-11-12T00:21:34;101021.06;;;12.92;62.19
52719;BME280;38616;42.140;24.760;2022-11-12T00:24:00;101014.56;;;12.98;61.89
52719;BME280;38616;42.140;24.760;2022-11-12T00:26:25;101017.25;;;12.93;62.50
52719;BME280;38616;42.140;24.760;2022-11-12T00:28:50;101010.81;;;13.09;62.02
52719;BME280;38616;42.140;24.760;2022-11-12T00:31:16;101021.25;;;12.80;62.80
52719;BME280;38616;42.140;24.760;2022-11-12T00:33:42;101017.44;;;12.53;64.63
52719;BME280;38616;42.140;24.760;2022-11-12T00:36:09;101019.72;;;12.62;64.23
52719;BME280;38616;42.140;24.760;2022-11-12T00:38:35;101014.69;;;12.48;63.90
52719;BME280;38616;42.140;24.760;2022-11-12T00:41:01;101022.53;;;12.72;63.24
52719;BME280;38616;42.140;24.760;2022-11-12T00:43:27;101012.66;;;12.66;62.94
52719;BME280;38616;42.140;24.760;2022-11-12T00:45:52;101015.69;;;12.69;63.52
52719;BME280;38616;42.140;24.760;2022-11-12T00:48:18;101014.56;;;12.98;61.88
52719;BME280;38616;42.140;24.760;2022-11-12T00:50:43;101008.38;;;12.75;62.29
52719;BME280;38616;42.140;24.760;2022-11-12T00:53:08;101006.84;;;12.90;61.99
52719;BME280;38616;42.140;24.760;2022-11-12T00:55:34;101005.41;;;12.82;62.72
52719;BME280;38616;42.140;24.760;2022-11-12T00:57:59;101006.56;;;12.91;62.00
52719;BME280;38616;42.140;24.760;2022-11-12T01:00:25;101011.75;;;12.88;61.73
52719;BME280;38616;42.140;24.760;2022-11-12T01:02:50;101007.63;;;12.85;61.63
52719;BME280;38616;42.140;24.760;2022-11-12T01:05:16;101003.72;;;12.70;62.40
52719;BME280;38616;42.140;24.760;2022-11-12T01:07:42;100997.63;;;12.58;62.56
52719;BME280;38616;42.140;24.760;2022-11-12T01:10:09;100993.47;;;12.55;62.36
52719;BME280;38616;42.140;24.760;2022-11-12T01:12:34;100996.72;;;12.52;62.71
52719;BME280;38616;42.140;24.760;2022-11-12T01:15:00;100992.63;;;12.50;62.81
52719;BME280;38616;42.140;24.760;2022-11-12T01:17:26;100989.16;;;12.60;62.50
52719;BME280;38616;42.140;24.760;2022-11-12T01:19:52;100995.69;;;12.59;62.71
52719;BME280;38616;42.140;24.760;2022-11-12T01:22:17;100988.63;;;12.63;61.68
52719;BME280;38616;42.140;24.760;2022-11-12T01:24:43;100985.97;;;12.68;61.87
52719;BME280;38616;42.140;24.760;2022-11-12T01:27:08;100982.19;;;12.74;61.45
52719;BME280;38616;42.140;24.760;2022-11-12T01:29:33;100981.06;;;12.70;62.27
52719;BME280;38616;42.140;24.760;2022-11-12T01:31:59;100981.72;;;12.50;62.68
52719;BME280;38616;42.140;24.760;2022-11-12T01:34:24;100973.84;;;12.53;62.16
52719;BME280;38616;42.140;24.760;2022-11-12T01:36:50;100974.91;;;12.52;62.19
52719;BME280;38616;42.140;24.760;2022-11-12T01:39:15;100979.47;;;12.41;62.30
52719;BME280;38616;42.140;24.760;2022-11-12T01:41:41;100972.06;;;12.37;62.53
52719;BME280;38616;42.140;24.760;2022-11-12T01:49:39;100984.53;;;12.27;63.02
52719;BME280;38616;42.140;24.760;2022-11-12T01:52:28;100976.19;;;12.39;62.37
52719;BME280;38616;42.140;24.760;2022-11-12T01:55:00;100967.16;;;12.39;62.66
52719;BME280;38616;42.140;24.760;2022-11-12T01:57:31;100973.03;;;12.20;62.32
52719;BME280;38616;42.140;24.760;2022-11-12T02:00:04;100969.34;;;12.37;61.34
52719;BME280;38616;42.140;24.760;2022-11-12T02:02:32;100973.38;;;12.02;61.95
52719;BME280;38616;42.140;24.760;2022-11-12T02:04:58;100971.00;;;12.10;62.34
52719;BME280;38616;42.140;24.760;2022-11-12T02:07:25;100979.91;;;12.01;63.12
52719;BME280;38616;42.140;24.760;2022-11-12T02:09:51;100970.94;;;12.05;63.13
52719;BME280;38616;42.140;24.760;2022-11-12T02:12:17;100974.56;;;11.89;64.47
52719;BME280;38616;42.140;24.760;2022-11-12T02:15:01;100979.19;;;11.66;66.20
52719;BME280;38616;42.140;24.760;2022-11-12T02:17:27;100977.09;;;11.29;67.69
52719;BME280;38616;42.140;24.760;2022-11-12T02:19:52;100986.72;;;11.36;67.44
52719;BME280;38616;42.140;24.760;2022-11-12T02:22:17;100982.38;;;11.58;67.22
52719;BME280;38616;42.140;24.760;2022-11-12T02:24:43;100976.91;;;11.35;67.56
52719;BME280;38616;42.140;24.760;2022-11-12T02:27:10;100984.38;;;11.23;68.34
52719;BME280;38616;42.140;24.760;2022-11-12T02:29:36;100982.47;;;11.23;68.51
52719;BME280;38616;42.140;24.760;2022-11-12T02:32:13;100972.84;;;11.16;68.66
52719;BME280;38616;42.140;24.760;2022-11-12T02:34:39;100979.44;;;11.20;68.81
52719;BME280;38616;42.140;24.760;2022-11-12T02:37:06;100990.22;;;11.15;69.25
52719;BME280;38616;42.140;24.760;2022-11-12T02:39:31;100983.22;;;11.19;69.63
52719;BME280;38616;42.140;24.760;2022-11-12T02:41:57;100983.28;;;11.24;69.26
52719;BME280;38616;42.140;24.760;2022-11-12T02:44:22;100976.28;;;11.28;69.56
52719;BME280;38616;42.140;24.760;2022-11-12T02:46:48;100980.97;;;11.55;68.88
52719;BME280;38616;42.140;24.760;2022-11-12T02:49:13;100974.44;;;11.56;69.10
52719;BME280;38616;42.140;24.760;2022-11-12T02:51:38;100987.72;;;11.30;69.71
52719;BME280;38616;42.140;24.760;2022-11-12T02:54:04;100983.28;;;11.24;69.91
52719;BME280;38616;42.140;24.760;2022-11-12T02:56:29;100974.84;;;11.03;70.04
52719;BME280;38616;42.140;24.760;2022-11-12T02:58:55;100985.59;;;11.15;70.44
52719;BME280;38616;42.140;24.760;2022-11-12T03:01:20;100985.66;;;11.37;70.05
52719;BME280;38616;42.140;24.760;2022-11-12T03:03:45;100983.81;;;11.65;69.62
52719;BME280;38616;42.140;24.760;2022-11-12T03:06:11;100985.47;;;11.66;69.19
52719;BME280;38616;42.140;24.760;2022-11-12T03:08:36;100998.56;;;11.70;68.95
52719;BME280;38616;42.140;24.760;2022-11-12T03:11:10;101000.84;;;11.78;68.25
52719;BME280;38616;42.140;24.760;2022-11-12T03:13:36;100991.91;;;11.60;68.48
52719;BME280;38616;42.140;24.760;2022-11-12T03:16:02;100992.91;;;11.54;68.67
52719;BME280;38616;42.140;24.760;2022-11-12T03:18:28;100984.59;;;11.38;69.59
52719;BME280;38616;42.140;24.760;2022-11-12T03:20:53;100989.88;;;11.28;69.60
52719;BME280;38616;42.140;24.760;2022-11-12T03:23:19;100981.84;;;11.38;69.82
52719;BME280;38616;42.140;24.760;2022-11-12T03:25:44;100972.69;;;11.45;69.36
52719;BME280;38616;42.140;24.760;2022-11-12T03:28:14;100983.69;;;11.33;69.86
52719;BME280;38616;42.140;24.760;2022-11-12T03:30:41;100984.75;;;11.32;69.95
52719;BME280;38616;42.140;24.760;2022-11-12T03:33:12;100986.22;;;11.40;69.50
52719;BME280;38616;42.140;24.760;2022-11-12T03:35:38;100984.25;;;11.57;69.20
52719;BME280;38616;42.140;24.760;2022-11-12T03:38:04;100987.31;;;11.61;68.94
52719;BME280;38616;42.140;24.760;2022-11-12T03:40:31;100990.47;;;11.52;69.21
52719;BME280;38616;42.140;24.760;2022-11-12T03:42:57;100985.91;;;11.58;69.25
52719;BME280;38616;42.140;24.760;2022-11-12T03:45:24;100986.22;;;11.40;69.39
52719;BME280;38616;42.140;24.760;2022-11-12T03:47:52;101005.00;;;11.41;68.77
52719;BME280;38616;42.140;24.760;2022-11-12T03:50:19;100998.34;;;11.32;69.70
52719;BME280;38616;42.140;24.760;2022-11-12T03:52:46;100993.63;;;11.44;69.06
52719;BME280;38616;42.140;24.760;2022-11-12T03:55:13;100994.91;;;11.36;69.30
52719;BME280;38616;42.140;24.760;2022-11-12T03:57:39;100996.47;;;11.32;69.58
52719;BME280;38616;42.140;24.760;2022-11-12T04:00:06;100989.88;;;11.28;69.92
52719;BME280;38616;42.140;24.760;2022-11-12T04:02:32;100991.69;;;11.22;70.15
52719;BME280;38616;42.140;24.760;2022-11-12T04:04:58;100988.38;;;11.37;69.71
52719;BME280;38616;42.140;24.760;2022-11-12T04:07:42;100990.03;;;11.38;69.89
52719;BME280;38616;42.140;24.760;2022-11-12T04:10:26;100989.25;;;11.65;68.67
52719;BME280;38616;42.140;24.760;2022-11-12T04:12:54;100990.47;;;11.75;68.37
52719;BME280;38616;42.140;24.760;2022-11-12T04:15:37;100994.53;;;11.72;68.86
52719;BME280;38616;42.140;24.760;2022-11-12T04:18:03;100992.81;;;11.44;69.00
52719;BME280;38616;42.140;24.760;2022-11-12T04:20:47;100993.81;;;11.60;68.74
52719;BME280;38616;42.140;24.760;2022-11-12T04:23:31;101001.09;;;11.15;70.25
52719;BME280;38616;42.140;24.760;2022-11-12T04:25:56;100997.63;;;11.19;70.49
52719;BME280;38616;42.140;24.760;2022-11-12T04:28:40;100994.53;;;11.11;70.61
52719;BME280;38616;42.140;24.760;2022-11-12T04:31:26;100994.56;;;10.93;70.68
52719;BME280;38616;42.140;24.760;2022-11-12T04:33:51;101001.44;;;11.01;70.65
52719;BME280;38616;42.140;24.760;2022-11-12T04:36:17;100996.50;;;10.98;70.52
52719;BME280;38616;42.140;24.760;2022-11-12T04:38:42;100994.72;;;11.04;70.13
52719;BME280;38616;42.140;24.760;2022-11-12T04:41:07;100997.84;;;10.96;70.94
52719;BME280;38616;42.140;24.760;2022-11-12T04:43:51;101001.53;;;10.72;71.51
52719;BME280;38616;42.140;24.760;2022-11-12T04:46:35;101001.13;;;10.81;71.69
52719;BME280;38616;42.140;24.760;2022-11-12T04:49:01;101009.72;;;10.89;71.09
52719;BME280;38616;42.140;24.760;2022-11-12T04:51:26;101010.81;;;11.28;70.66
52719;BME280;38616;42.140;24.760;2022-11-12T04:54:10;101007.38;;;11.77;69.19
52719;BME280;38616;42.140;24.760;2022-11-12T04:56:35;101007.19;;;12.06;68.04
52719;BME280;38616;42.140;24.760;2022-11-12T04:59:01;101021.63;;;12.06;68.21
52719;BME280;38616;42.140;24.760;2022-11-12T05:01:26;101024.59;;;12.05;68.12
52719;BME280;38616;42.140;24.760;2022-11-12T05:03:51;101027.81;;;11.79;69.13
52719;BME280;38616;42.140;24.760;2022-11-12T05:06:17;101023.47;;;11.78;69.13
52719;BME280;38616;42.140;24.760;2022-11-12T05:09:01;101022.41;;;11.62;69.88
52719;BME280;38616;42.140;24.760;2022-11-12T05:11:26;101025.91;;;11.80;69.38
52719;BME280;38616;42.140;24.760;2022-11-12T05:13:51;101023.69;;;11.77;69.75
52719;BME280;38616;42.140;24.760;2022-11-12T05:16:17;101015.03;;;11.80;69.42
52719;BME280;38616;42.140;24.760;2022-11-12T05:18:42;101024.06;;;11.63;69.75
52719;BME280;38616;42.140;24.760;2022-11-12T05:21:07;101014.81;;;11.64;69.77
52719;BME280;38616;42.140;24.760;2022-11-12T05:23:51;101024.19;;;11.74;69.73
52719;BME280;38616;42.140;24.760;2022-11-12T05:26:17;101025.16;;;11.62;69.55
52719;BME280;38616;42.140;24.760;2022-11-12T05:28:42;101039.03;;;11.83;69.44
52719;BME280;38616;42.140;24.760;2022-11-12T05:31:08;101044.47;;;11.83;68.83
52719;BME280;38616;42.140;24.760;2022-11-12T05:33:33;101044.59;;;11.71;69.41
52719;BME280;38616;42.140;24.760;2022-11-12T05:35:58;101049.84;;;11.56;70.19
52719;BME280;38616;42.140;24.760;2022-11-12T05:38:24;101047.81;;;11.68;70.00
52719;BME280;38616;42.140;24.760;2022-11-12T05:40:50;101063.66;;;11.71;69.69
52719;BME280;38616;42.140;24.760;2022-11-12T05:43:15;101060.81;;;11.83;69.24
52719;BME280;38616;42.140;24.760;2022-11-12T05:45:42;101067.19;;;11.72;69.90
52719;BME280;38616;42.140;24.760;2022-11-12T05:48:09;101075.00;;;11.85;69.63
52719;BME280;38616;42.140;24.760;2022-11-12T05:50:34;101074.78;;;11.70;69.87
52719;BME280;38616;42.140;24.760;2022-11-12T05:52:59;101084.75;;;11.81;70.05
52719;BME280;38616;42.140;24.760;2022-11-12T05:55:25;101088.09;;;11.88;69.69
52719;BME280;38616;42.140;24.760;2022-11-12T05:57:50;101084.59;;;11.71;70.40
52719;BME280;38616;42.140;24.760;2022-11-12T06:00:16;101101.44;;;11.67;70.64
52719;BME280;38616;42.140;24.760;2022-11-12T06:02:41;101102.34;;;11.56;71.08
52719;BME280;38616;42.140;24.760;2022-11-12T06:05:07;101106.81;;;11.62;71.01
52719;BME280;38616;42.140;24.760;2022-11-12T06:07:33;101110.53;;;11.56;71.07
52719;BME280;38616;42.140;24.760;2022-11-12T06:09:58;101102.78;;;11.65;71.03
52719;BME280;38616;42.140;24.760;2022-11-12T06:12:23;101114.03;;;11.74;71.03
52719;BME280;38616;42.140;24.760;2022-11-12T06:14:49;101119.41;;;11.68;71.18
52719;BME280;38616;42.140;24.760;2022-11-12T06:17:15;101121.22;;;11.80;70.60
52719;BME280;38616;42.140;24.760;2022-11-12T06:19:41;101128.16;;;11.71;70.66
52719;BME280;38616;42.140;24.760;2022-11-12T06:22:06;101126.50;;;11.70;70.90
52719;BME280;38616;42.140;24.760;2022-11-12T06:24:32;101133.22;;;11.62;71.15
52719;BME280;38616;42.140;24.760;2022-11-12T06:26:57;101132.38;;;11.61;71.68
52719;BME280;38616;42.140;24.760;2022-11-12T06:29:22;101122.16;;;11.51;71.41
52719;BME280;38616;42.140;24.760;2022-11-12T06:31:48;101152.25;;;11.62;71.48
52719;BME280;38616;42.140;24.760;2022-11-12T06:34:13;101142.97;;;11.41;72.35
52719;BME280;38616;42.140;24.760;2022-11-12T06:36:39;101149.78;;;11.60;71.59
52719;BME280;38616;42.140;24.760;2022-11-12T06:39:04;101140.88;;;11.65;71.32
52719;BME280;38616;42.140;24.760;2022-11-12T06:41:29;101145.13;;;11.38;72.33
52719;BME280;38616;42.140;24.760;2022-11-12T06:43:55;101149.97;;;11.36;72.17
52719;BME280;38616;42.140;24.760;2022-11-12T06:46:20;101153.00;;;11.40;72.00
52719;BME280;38616;42.140;24.760;2022-11-12T06:48:45;101150.38;;;11.45;72.16
52719;BME280;38616;42.140;24.760;2022-11-12T06:51:16;101155.66;;;11.35;72.19
52719;BME280;38616;42.140;24.760;2022-11-12T06:53:42;101154.44;;;11.43;71.66
52719;BME280;38616;42.140;24.760;2022-11-12T06:56:08;101157.06;;;11.55;71.32
52719;BME280;38616;42.140;24.760;2022-11-12T06:58:33;101152.78;;;11.42;70.55
52719;BME280;38616;42.140;24.760;2022-11-12T07:01:11;101144.41;;;11.65;69.52
52719;BME280;38616;42.140;24.760;2022-11-12T07:03:38;101156.22;;;11.54;69.89
52719;BME280;38616;42.140;24.760;2022-11-12T07:06:05;101149.47;;;11.57;69.99
52719;BME280;38616;42.140;24.760;2022-11-12T07:08:31;101160.00;;;11.70;70.19
52719;BME280;38616;42.140;24.760;2022-11-12T07:10:56;101160.66;;;11.77;69.08
52719;BME280;38616;42.140;24.760;2022-11-12T07:13:22;101160.16;;;11.63;69.26
52719;BME280;38616;42.140;24.760;2022-11-12T07:15:47;101165.88;;;11.62;69.38
52719;BME280;38616;42.140;24.760;2022-11-12T07:18:13;101157.53;;;11.68;68.95
52719;BME280;38616;42.140;24.760;2022-11-12T07:20:38;101167.94;;;11.55;69.92
52719;BME280;38616;42.140;24.760;2022-11-12T07:23:04;101169.81;;;11.71;68.86
52719;BME280;38616;42.140;24.760;2022-11-12T07:25:29;101162.81;;;11.58;69.59
52719;BME280;38616;42.140;24.760;2022-11-12T07:27:54;101171.72;;;11.71;69.25
52719;BME280;38616;42.140;24.760;2022-11-12T07:30:20;101167.25;;;11.81;67.87
52719;BME280;38616;42.140;24.760;2022-11-12T07:32:45;101169.41;;;11.62;68.70
52719;BME280;38616;42.140;24.760;2022-11-12T07:35:11;101170.97;;;11.58;69.06
52719;BME280;38616;42.140;24.760;2022-11-12T07:37:36;101172.03;;;11.57;69.51
52719;BME280;38616;42.140;24.760;2022-11-12T07:40:03;101166.53;;;11.69;69.03
52719;BME280;38616;42.140;24.760;2022-11-12T07:42:31;101174.78;;;11.23;70.00
52719;BME280;38616;42.140;24.760;2022-11-12T07:44:57;101170.81;;;11.31;70.53
52719;BME280;38616;42.140;24.760;2022-11-12T07:47:23;101179.31;;;11.34;70.28
52719;BME280;38616;42.140;24.760;2022-11-12T07:49:48;101176.81;;;11.50;69.02
52719;BME280;38616;42.140;24.760;2022-11-12T07:52:13;101170.66;;;11.37;68.89
52719;BME280;38616;42.140;24.760;2022-11-12T07:54:39;101171.38;;;11.16;70.14
52719;BME280;38616;42.140;24.760;2022-11-12T07:57:04;101171.97;;;11.35;68.31
52719;BME280;38616;42.140;24.760;2022-11-12T07:59:29;101170.50;;;11.27;68.99
52719;BME280;38616;42.140;24.760;2022-11-12T08:01:55;101172.47;;;11.15;69.51
52719;BME280;38616;42.140;24.760;2022-11-12T08:04:20;101164.63;;;11.52;68.45
52719;BME280;38616;42.140;24.760;2022-11-12T08:06:46;101163.66;;;11.42;68.00
52719;BME280;38616;42.140;24.760;2022-11-12T08:09:11;101152.75;;;11.24;68.77
52719;BME280;38616;42.140;24.760;2022-11-12T08:11:37;101158.88;;;11.32;69.13
52719;BME280;38616;42.140;24.760;2022-11-12T08:14:02;101163.91;;;11.23;69.11
52719;BME280;38616;42.140;24.760;2022-11-12T08:16:28;101170.06;;;11.18;69.12
52719;BME280;38616;42.140;24.760;2022-11-12T08:18:54;101164.66;;;11.35;68.66
52719;BME280;38616;42.140;24.760;2022-11-12T08:21:19;101172.63;;;11.25;68.87
52719;BME280;38616;42.140;24.760;2022-11-12T08:23:45;101166.31;;;11.36;69.05
52719;BME280;38616;42.140;24.760;2022-11-12T08:26:12;101178.47;;;11.34;68.89
52719;BME280;38616;42.140;24.760;2022-11-12T08:28:38;101178.56;;;11.39;68.91
52719;BME280;38616;42.140;24.760;2022-11-12T08:31:11;101186.41;;;11.35;69.30
52719;BME280;38616;42.140;24.760;2022-11-12T08:33:37;101186.16;;;11.37;69.44
52719;BME280;38616;42.140;24.760;2022-11-12T08:36:04;101192.00;;;11.29;69.16
52719;BME280;38616;42.140;24.760;2022-11-12T08:38:30;101201.50;;;11.26;69.21
52719;BME280;38616;42.140;24.760;2022-11-12T08:41:00;101194.50;;;11.30;69.80
52719;BME280;38616;42.140;24.760;2022-11-12T08:43:26;101204.47;;;11.42;69.17
52719;BME280;38616;42.140;24.760;2022-11-12T08:45:51;101200.34;;;11.39;68.60
52719;BME280;38616;42.140;24.760;2022-11-12T08:48:17;101192.09;;;11.34;69.19
52719;BME280;38616;42.140;24.760;2022-11-12T08:50:42;101203.41;;;11.43;68.95
52719;BME280;38616;42.140;24.760;2022-11-12T08:53:11;101200.75;;;11.31;68.81
52719;BME280;38616;42.140;24.760;2022-11-12T08:55:38;101205.38;;;11.47;69.03
52719;BME280;38616;42.140;24.760;2022-11-12T08:58:04;101197.63;;;11.56;68.02
52719;BME280;38616;42.140;24.760;2022-11-12T09:00:36;101202.97;;;11.51;67.90
52719;BME280;38616;42.140;24.760;2022-11-12T09:03:03;101203.22;;;11.49;67.50
52719;BME280;38616;42.140;24.760;2022-11-12T09:05:29;101194.81;;;11.51;67.53
52719;BME280;38616;42.140;24.760;2022-11-12T09:07:59;101195.56;;;11.46;68.01
52719;BME280;38616;42.140;24.760;2022-11-12T09:10:25;101197.31;;;11.35;68.29
52719;BME280;38616;42.140;24.760;2022-11-12T09:12:51;101187.72;;;11.33;68.93
52719;BME280;38616;42.140;24.760;2022-11-12T09:15:17;101176.34;;;11.19;68.96
52719;BME280;38616;42.140;24.760;2022-11-12T09:17:43;101186.00;;;11.44;68.93
52719;BME280;38616;42.140;24.760;2022-11-12T09:20:27;101188.16;;;11.42;69.23
52719;BME280;38616;42.140;24.760;2022-11-12T09:22:56;101190.69;;;11.48;68.96
52719;BME280;38616;42.140;24.760;2022-11-12T09:25:22;101180.00;;;11.42;68.88
52719;BME280;38616;42.140;24.760;2022-11-12T09:27:47;101183.88;;;11.46;68.45
52719;BME280;38616;42.140;24.760;2022-11-12T09:30:13;101184.91;;;11.28;68.40
52719;BME280;38616;42.140;24.760;2022-11-12T09:32:39;101183.69;;;11.35;68.63
52719;BME280;38616;42.140;24.760;2022-11-12T09:35:05;101184.91;;;11.28;68.74
52719;BME280;38616;42.140;24.760;2022-11-12T09:37:30;101183.03;;;11.28;69.25
52719;BME280;38616;42.140;24.760;2022-11-12T09:39:56;101177.69;;;11.33;68.61
52719;BME280;38616;42.140;24.760;2022-11-12T09:42:21;101185.97;;;11.27;68.89
52719;BME280;38616;42.140;24.760;2022-11-12T09:45:27;101183.13;;;11.50;68.17
52719;BME280;38616;42.140;24.760;2022-11-12T09:47:58;101176.81;;;11.50;67.89
52719;BME280;38616;42.140;24.760;2022-11-12T09:50:28;101177.19;;;11.53;68.47
52719;BME280;38616;42.140;24.760;2022-11-12T09:53:51;101174.13;;;11.67;67.83
52719;BME280;38616;42.140;24.760;2022-11-12T09:55:56;101175.84;;;11.73;67.76
52719;BME280;38616;42.140;24.760;2022-11-12T09:58:24;101167.50;;;11.80;67.78
52719;BME280;38616;42.140;24.760;2022-11-12T10:01:01;101179.88;;;11.71;67.67
52719;BME280;38616;42.140;24.760;2022-11-12T10:06:26;101180.38;;;11.67;67.62
52719;BME280;38616;42.140;24.760;2022-11-12T10:08:53;101173.03;;;11.68;67.73
52719;BME280;38616;42.140;24.760;2022-11-12T10:17:38;101176.50;;;11.63;68.98
52719;BME280;38616;42.140;24.760;2022-11-12T10:20:26;101182.28;;;11.50;69.42
52719;BME280;38616;42.140;24.760;2022-11-12T10:23:00;101175.44;;;11.47;69.25
52719;BME280;38616;42.140;24.760;2022-11-12T10:25:31;101183.28;;;11.44;69.44
52719;BME280;38616;42.140;24.760;2022-11-12T10:27:57;101184.00;;;11.56;68.94
52719;BME280;38616;42.140;24.760;2022-11-12T10:30:24;101177.72;;;11.73;68.89
52719;BME280;38616;42.140;24.760;2022-11-12T10:32:51;101178.72;;;11.66;68.44
52719;BME280;38616;42.140;24.760;2022-11-12T10:35:19;101185.50;;;11.64;68.93
52719;BME280;38616;42.140;24.760;2022-11-12T10:37:52;101183.34;;;11.66;68.88
52719;BME280;38616;42.140;24.760;2022-11-12T10:42:57;101183.09;;;11.67;68.89
52719;BME280;38616;42.140;24.760;2022-11-12T10:45:23;101176.56;;;11.68;67.11
52719;BME280;38616;42.140;24.760;2022-11-12T10:47:49;101171.31;;;11.62;68.73
52719;BME280;38616;42.140;24.760;2022-11-12T10:50:25;101173.03;;;11.51;69.29
52719;BME280;38616;42.140;24.760;2022-11-12T10:55:36;101179.97;;;11.59;69.03
52719;BME280;38616;42.140;24.760;2022-11-12T11:00:33;101169.25;;;11.52;70.04
52719;BME280;38616;42.140;24.760;2022-11-12T11:03:01;101158.44;;;11.57;68.39
52719;BME280;38616;42.140;24.760;2022-11-12T11:07:52;101187.00;;;11.55;70.27
52719;BME280;38616;42.140;24.760;2022-11-12T11:10:27;101185.50;;;11.64;70.11
52719;BME280;38616;42.140;24.760;2022-11-12T11:13:17;101183.59;;;11.64;70.13
52719;BME280;38616;42.140;24.760;2022-11-12T11:16:03;101180.88;;;11.64;69.10
52719;BME280;38616;42.140;24.760;2022-11-12T11:18:31;101180.22;;;11.57;69.49
52719;BME280;38616;42.140;24.760;2022-11-12T11:21:40;101169.91;;;11.76;69.17
52719;BME280;38616;42.140;24.760;2022-11-12T11:37:29;101180.47;;;11.56;69.09
52719;BME280;38616;42.140;24.760;2022-11-12T11:45:17;101164.16;;;11.38;69.97
52719;BME280;38616;42.140;24.760;2022-11-12T11:51:01;101168.16;;;11.02;70.31
52719;BME280;38616;42.140;24.760;2022-11-12T11:53:45;101173.81;;;10.83;70.86
52719;BME280;38616;42.140;24.760;2022-11-12T11:56:24;101162.97;;;11.00;70.14
52719;BME280;38616;42.140;24.760;2022-11-12T11:59:05;101161.31;;;10.99;71.49
52719;BME280;38616;42.140;24.760;2022-11-12T12:07:14;101157.22;;;11.31;71.63
52719;BME280;38616;42.140;24.760;2022-11-12T12:15:38;101152.34;;;11.16;71.33
52719;BME280;38616;42.140;24.760;2022-11-12T12:20:54;101144.03;;;11.57;71.70
52719;BME280;38616;42.140;24.760;2022-11-12T12:23:36;101143.38;;;11.32;71.02
52719;BME280;38616;42.140;24.760;2022-11-12T12:26:11;101142.38;;;11.21;71.69
52719;BME280;38616;42.140;24.760;2022-11-12T12:28:57;101155.34;;;10.85;70.86
52719;BME280;38616;42.140;24.760;2022-11-12T12:31:32;101156.81;;;10.35;73.02
52719;BME280;38616;42.140;24.760;2022-11-12T12:34:18;101149.38;;;10.30;73.00
52719;BME280;38616;42.140;24.760;2022-11-12T12:36:49;101146.81;;;10.24;73.55
52719;BME280;38616;42.140;24.760;2022-11-12T12:39:26;101148.91;;;10.33;73.30
52719;BME280;38616;42.140;24.760;2022-11-12T12:42:03;101147.34;;;10.49;72.99
52719;BME280;38616;42.140;24.760;2022-11-12T12:44:40;101146.13;;;10.57;72.87
52719;BME280;38616;42.140;24.760;2022-11-12T12:47:27;101149.00;;;10.51;73.31
52719;BME280;38616;42.140;24.760;2022-11-12T12:49:54;101150.50;;;10.58;73.55
52719;BME280;38616;42.140;24.760;2022-11-12T12:52:20;101149.59;;;10.53;73.36
52719;BME280;38616;42.140;24.760;2022-11-12T12:57:38;101151.72;;;10.79;72.84
52719;BME280;38616;42.140;24.760;2022-11-12T13:00:33;101149.84;;;10.27;73.15
52719;BME280;38616;42.140;24.760;2022-11-12T13:02:59;101138.38;;;10.37;74.74
52719;BME280;38616;42.140;24.760;2022-11-12T13:05:26;101145.28;;;10.69;73.57
52719;BME280;38616;42.140;24.760;2022-11-12T13:07:56;101144.25;;;10.58;73.70
52719;BME280;38616;42.140;24.760;2022-11-12T13:10:47;101140.63;;;10.69;73.60
52719;BME280;38616;42.140;24.760;2022-11-12T13:15:42;101139.63;;;10.58;74.02
52719;BME280;38616;42.140;24.760;2022-11-12T13:18:08;101143.31;;;10.81;73.66
52719;BME280;38616;42.140;24.760;2022-11-12T13:20:41;101120.69;;;10.92;73.04
52719;BME280;38616;42.140;24.760;2022-11-12T13:23:48;101135.00;;;10.88;72.50
52719;BME280;38616;42.140;24.760;2022-11-12T13:26:46;101136.38;;;10.73;73.16
52719;BME280;38616;42.140;24.760;2022-11-12T13:37:47;101128.69;;;10.99;71.20
52719;BME280;38616;42.140;24.760;2022-11-12T13:40:18;101123.63;;;10.91;71.26
52719;BME280;38616;42.140;24.760;2022-11-12T13:42:48;101126.75;;;10.83;72.55
52719;BME280;38616;42.140;24.760;2022-11-12T13:45:19;101129.94;;;11.08;71.24
52719;BME280;38616;42.140;24.760;2022-11-12T13:47:47;101133.06;;;10.71;71.61
52719;BME280;38616;42.140;24.760;2022-11-12T13:50:16;101132.88;;;10.90;72.56
52719;BME280;38616;42.140;24.760;2022-11-12T13:52:44;101139.06;;;11.02;71.21
52719;BME280;38616;42.140;24.760;2022-11-12T13:55:18;101133.44;;;10.92;71.61
52719;BME280;38616;42.140;24.760;2022-11-12T13:57:54;101137.09;;;10.98;71.81
52719;BME280;38616;42.140;24.760;2022-11-12T14:00:26;101137.41;;;11.01;72.13
52719;BME280;38616;42.140;24.760;2022-11-12T14:03:02;101138.09;;;11.08;72.07
52719;BME280;38616;42.140;24.760;2022-11-12T14:05:31;101140.03;;;10.96;72.64